Maersk Iowa — KABL — position and weather

sailwx.info

Track history (hours):
 
Tides and Currents Weather Stations Pressure Air Temp Water Temp Dewpoint Dewpoint Depression Visibility Wind Speed Wind Dir Waves Ship Positions

Maersk Iowa

Owner: FARRELL LINES INC, Norfolk, VA. More information available from US FCC via Universal Licensing System and Coast Guard Vessel Documentation Center.

Last reported at 2015-Mar-27 18:00 UTC. Time now 2015-Apr-01 05:50 UTC.
Position N 49°18' W 008°42'.

Length 292 m; draft 13.2 m.

Type: Ship (hazmat cat A). MMSI: 367606000.

Wind from 260 at 22 knots

Waves 3.0 meters (10 feet), 6 second period

Barometer 1020.0 mb
Air temperature 12.0 ° C
Visibility: greater than 0.0 NM
Dewpoint 10.2 ° C
Water temperature 10.3 ° C

Date/timePositionNaut miles runAvg speedWind from/ knotsBaromVisibWave heightAir tempDewpointWater temp
2015-Mar-27 18:00N 49°18' W 008°42'20819.7 260 / 221020.0 0.0 3.012.010.210.3
2015-Mar-27 07:26N 49°57' W 003°26'1820.7
2015-Mar-27 06:33N 50°00' W 002°59'2121.3
2015-Mar-27 05:33N 50°06' W 002°27'4820.3
2015-Mar-27 03:12N 50°19' W 001°15'2917.6
2015-Mar-27 01:33N 50°27' W 000°31'1917.5
2015-Mar-27 00:29N 50°30' W 000°02'1718.0
2015-Mar-26 23:33N 50°34' E 000°24'1919.2
2015-Mar-26 22:33N 50°43' E 000°51'2220.3
2015-Mar-26 21:29N 50°55' E 001°19'1819.7
2015-Mar-26 20:33N 51°09' E 001°39'1818.5
2015-Mar-26 19:33N 51°24' E 001°56'1817.9
2015-Mar-26 18:33N 51°38' E 002°14'9418.8
2015-Mar-26 13:33N 52°51' E 003°50'2019.0
2015-Mar-26 12:30N 53°06' E 004°13'1718.2
2015-Mar-26 11:33N 53°19' E 004°30'1716.8
2015-Mar-26 10:33N 53°32' E 004°50'1818.0
2015-Mar-26 09:33N 53°38' E 005°18'1818.5
2015-Mar-26 08:33N 53°45' E 005°47'2019.7
2015-Mar-26 07:32N 53°49' E 006°20'3020.4
2015-Mar-26 06:05N 53°56' E 007°09'1120.2
2015-Mar-26 05:32N 53°59' E 007°27'1616.0
2015-Mar-26 04:33N 53°52' E 007°52'1414.3
2015-Mar-26 03:33N 53°45' E 008°13'1414.0
2015-Mar-26 02:33N 53°36' E 008°31'1 1.3
2015-Mar-26 01:31N 53°35' E 008°32'0 0.0
2015-Mar-26 00:31N 53°35' E 008°32'0 0.0
2015-Mar-25 23:31N 53°35' E 008°32'0 0.0
2015-Mar-25 22:28N 53°35' E 008°32'0 0.0
2015-Mar-25 21:28N 53°35' E 008°32'0 0.0
2015-Mar-25 20:31N 53°35' E 008°32'0 0.0
2015-Mar-25 19:28N 53°35' E 008°32'0 0.0
2015-Mar-25 18:32N 53°35' E 008°32'0 0.0
2015-Mar-25 17:29N 53°35' E 008°32'0 0.0
2015-Mar-25 16:26N 53°35' E 008°32'0 0.0
2015-Mar-25 15:26N 53°35' E 008°32'0 0.0
2015-Mar-25 14:29N 53°35' E 008°32'0 0.0
2015-Mar-25 13:20N 53°35' E 008°32'0 0.0
2015-Mar-25 12:29N 53°35' E 008°32'0 0.0
2015-Mar-25 11:32N 53°35' E 008°32'0 0.0
2015-Mar-25 10:32N 53°35' E 008°32'0 0.0
2015-Mar-25 09:26N 53°35' E 008°32'0 0.0
2015-Mar-25 08:29N 53°35' E 008°32'0 0.0
2015-Mar-25 07:23N 53°35' E 008°32'0 0.0
2015-Mar-25 06:32N 53°35' E 008°32'0 0.0
2015-Mar-25 05:29N 53°35' E 008°32'0 0.0
2015-Mar-25 04:17N 53°35' E 008°32'0 0.0
2015-Mar-25 03:32N 53°35' E 008°32'0 0.0
2015-Mar-25 02:32N 53°35' E 008°32'0 0.0
2015-Mar-25 01:32N 53°35' E 008°32'0 0.0
2015-Mar-25 00:32N 53°35' E 008°32'0 0.0
2015-Mar-24 23:32N 53°35' E 008°32'0 0.0
2015-Mar-24 22:32N 53°35' E 008°32'0 0.0
2015-Mar-24 21:32N 53°35' E 008°32'0 0.0
2015-Mar-24 20:23N 53°35' E 008°32'3 3.3
2015-Mar-24 19:34N 53°37' E 008°29'1414.2
2015-Mar-24 18:33N 53°46' E 008°11'1413.8
2015-Mar-24 17:33N 53°52' E 007°50'4 3.9
2015-Mar-24 16:33N 53°53' E 007°43'6 6.3
2015-Mar-24 15:33N 53°54' E 007°33'9 8.9
2015-Mar-24 14:33N 53°53' E 007°18'10 9.5
2015-Mar-24 13:32N 53°51' E 007°02'1310.8
2015-Mar-24 12:19N 53°48' E 006°40'911.2
2015-Mar-24 11:33N 53°46' E 006°26'1111.4
2015-Mar-24 10:33N 53°43' E 006°08'1111.4
2015-Mar-24 09:33N 53°40' E 005°50'1111.4
2015-Mar-24 08:33N 53°36' E 005°31'1211.6
2015-Mar-24 07:33N 53°32' E 005°13'1111.5
2015-Mar-24 06:33N 53°28' E 004°55'1111.0
2015-Mar-24 05:33N 53°21' E 004°41'1411.2
2015-Mar-24 04:16N 53°09' E 004°29'810.7
2015-Mar-24 03:31N 53°02' E 004°22'1010.3
2015-Mar-24 02:33N 52°53' E 004°15'10 9.8
2015-Mar-24 01:33N 52°44' E 004°07'10 9.7
2015-Mar-24 00:33N 52°36' E 003°59'9 9.3
2015-Mar-23 23:33N 52°27' E 003°53'9 8.9
2015-Mar-23 22:33N 52°18' E 003°52'9 9.4
2015-Mar-23 21:33N 52°09' E 003°54'7 7.2
2015-Mar-23 20:33N 52°02' E 003°55'7 6.4
2015-Mar-23 19:32N 51°58' E 004°03'0 0.0
2015-Mar-23 18:32N 51°58' E 004°03'0 0.0
2015-Mar-23 17:32N 51°58' E 004°03'0 0.0
2015-Mar-23 16:32N 51°58' E 004°03'0 0.0
2015-Mar-23 15:32N 51°58' E 004°03'0 0.0
2015-Mar-23 14:32N 51°58' E 004°03'0 0.0
2015-Mar-23 13:32N 51°58' E 004°03'0 0.0
2015-Mar-23 12:32N 51°58' E 004°03'0 0.0
2015-Mar-23 11:32N 51°58' E 004°03'0 0.0
2015-Mar-23 10:32N 51°58' E 004°03'0 0.0
2015-Mar-23 09:32N 51°58' E 004°03'0 0.0
2015-Mar-23 08:32N 51°58' E 004°03'0 0.0
2015-Mar-23 07:32N 51°58' E 004°03'0 0.0
2015-Mar-23 06:29N 51°58' E 004°03'0 0.0
2015-Mar-23 05:32N 51°58' E 004°03'0 0.0
2015-Mar-23 04:29N 51°58' E 004°03'0 0.0
2015-Mar-23 03:32N 51°58' E 004°03'0 0.0
2015-Mar-23 02:32N 51°58' E 004°03'0 0.0
2015-Mar-23 01:32N 51°58' E 004°03'0 0.0
2015-Mar-23 00:32N 51°58' E 004°03'1 0.6
2015-Mar-22 23:33N 51°58' E 004°04'5 4.8
2015-Mar-22 22:33N 52°00' E 003°57'8 8.3
2015-Mar-22 21:33N 51°59' E 003°44'6 2.3
2015-Mar-22 19:06N 51°56' E 003°36'0 0.2
2015-Mar-22 18:17N 51°56' E 003°36'0 0.1
2015-Mar-22 17:32N 51°56' E 003°37'0 0.0
2015-Mar-22 16:33N 51°56' E 003°37'0 0.0
2015-Mar-22 15:33N 51°56' E 003°37'0 0.1
2015-Mar-22 14:05N 51°56' E 003°37'0 0.4
2015-Mar-22 13:32N 51°56' E 003°37'0 0.1
2015-Mar-22 12:05N 51°56' E 003°36'0 0.0
2015-Mar-22 10:29N 51°56' E 003°36'0 0.0
2015-Mar-22 09:30N 51°56' E 003°36'0 0.0
2015-Mar-22 08:18N 51°56' E 003°36'0 0.0
2015-Mar-22 06:29N 51°56' E 003°36'0 0.1
2015-Mar-22 04:30N 51°56' E 003°37'2 2.0
2015-Mar-22 03:30N 51°56' E 003°33'7 7.8
2015-Mar-22 02:33N 51°52' E 003°23'8 7.9
2015-Mar-22 01:32N 51°46' E 003°14'12 9.7
2015-Mar-22 00:16N 51°34' E 003°09'1115.3
2015-Mar-21 23:33N 51°25' E 003°01'1817.6
2015-Mar-21 22:34N 51°25' E 003°29'1010.2
2015-Mar-21 21:33N 51°22' E 003°45'1110.8
2015-Mar-21 20:34N 51°24' E 004°02'10 9.8
2015-Mar-21 19:34N 51°21' E 004°17'0 0.0
2015-Mar-21 18:34N 51°21' E 004°17'2 1.8
2015-Mar-21 17:34N 51°20' E 004°19'1 0.6
2015-Mar-21 16:30N 51°20' E 004°20'0 0.0
2015-Mar-21 15:34N 51°20' E 004°20'0 0.0
2015-Mar-21 14:34N 51°20' E 004°20'0 0.0
2015-Mar-21 13:31N 51°20' E 004°20'0 0.0
2015-Mar-21 12:33N 51°20' E 004°20'0 0.0
2015-Mar-21 11:33N 51°20' E 004°20'0 0.0
2015-Mar-21 10:33N 51°20' E 004°20'0 0.0
2015-Mar-21 09:33N 51°20' E 004°20'0 0.0
2015-Mar-21 08:34N 51°20' E 004°20'0 0.0
2015-Mar-21 07:33N 51°20' E 004°20'0 0.0
2015-Mar-21 06:34N 51°20' E 004°20'0 0.0
2015-Mar-21 05:33N 51°20' E 004°20'0 0.0
2015-Mar-21 04:33N 51°20' E 004°20'0 0.0
2015-Mar-21 03:33N 51°20' E 004°20'0 0.0
2015-Mar-21 02:33N 51°20' E 004°20'0 0.0
2015-Mar-21 01:33N 51°20' E 004°20'0 0.0
2015-Mar-21 00:31N 51°20' E 004°20'0 0.0
2015-Mar-20 23:33N 51°20' E 004°20'0 0.0
2015-Mar-20 22:33N 51°20' E 004°20'0 0.0
2015-Mar-20 21:33N 51°20' E 004°20'0 0.0
2015-Mar-20 20:30N 51°20' E 004°20'0 0.0
2015-Mar-20 19:33N 51°20' E 004°20'0 0.0
2015-Mar-20 18:33N 51°20' E 004°20'0 0.0
2015-Mar-20 17:30N 51°20' E 004°20'0 0.0
2015-Mar-20 16:33N 51°20' E 004°20'0 0.0
2015-Mar-20 15:33N 51°20' E 004°20'0 0.0
2015-Mar-20 14:33N 51°20' E 004°20'0 0.0
2015-Mar-20 13:33N 51°20' E 004°20'2 2.1
2015-Mar-20 12:34N 51°21' E 004°17'0 0.2
2015-Mar-20 11:34N 51°21' E 004°17'4 4.2
2015-Mar-20 10:33N 51°24' E 004°12'9 9.1
2015-Mar-20 09:34N 51°25' E 003°58'10 9.8
2015-Mar-20 08:33N 51°25' E 003°42'8 8.4
2015-Mar-20 07:33N 51°25' E 003°29'12 9.9
2015-Mar-20 06:17N 51°24' E 003°09'7 9.7
2015-Mar-20 05:33N 51°23' E 002°58'1010.1
2015-Mar-20 04:33N 51°22' E 002°42'10 9.5
2015-Mar-20 03:33N 51°21' E 002°26'1313.6
2015-Mar-20 02:34N 51°15' E 002°07'1717.3
2015-Mar-20 01:34N 51°07' E 001°43'2618.1
2015-Mar-20 00:08N 50°45' E 001°22'1518.4
2015-Mar-19 23:20N 50°34' E 001°06'1418.0
2015-Mar-19 22:33N 50°29' E 000°45'56820.6
2015-Mar-18 19:00N 49°30' W 013°54'25919.9 120 / 131033.0 5.4 1.011.0 7.211.7
2015-Mar-18 06:00N 49°06' W 020°30'26424.0 320 / 91031.010.8 1.010.0 5.011.4
2015-Mar-17 19:00N 48°24' W 027°06'   180 / 321025.010.8 3.011.0 7.211.7
Track history (hours):
 
Tides and Currents Weather Stations Pressure Air Temp Water Temp Dewpoint Dewpoint Depression Visibility Wind Speed Wind Dir Waves Ship Positions

Maersk Iowa

Owner: FARRELL LINES INC, Norfolk, VA. More information available from US FCC via Universal Licensing System and Coast Guard Vessel Documentation Center.

Last reported at 2015-Mar-27 18:00 UTC. Time now 2015-Apr-01 05:50 UTC.
Position N 49°18' W 008°42'.

Length 292 m; draft 13.2 m.

Type: Ship (hazmat cat A). MMSI: 367606000.

Wind from 260 at 22 knots

Waves 3.0 meters (10 feet), 6 second period

Barometer 1020.0 mb
Air temperature 12.0 ° C
Visibility: greater than 0.0 NM
Dewpoint 10.2 ° C
Water temperature 10.3 ° C

Date/timePositionNaut miles runAvg speedWind from/ knotsBaromVisibWave heightAir tempDewpointWater temp
2015-Mar-27 18:00N 49°18' W 008°42'20819.7 260 / 221020.0 0.0 3.012.010.210.3
2015-Mar-27 07:26N 49°57' W 003°26'1820.7
2015-Mar-27 06:33N 50°00' W 002°59'2121.3
2015-Mar-27 05:33N 50°06' W 002°27'4820.3
2015-Mar-27 03:12N 50°19' W 001°15'2917.6
2015-Mar-27 01:33N 50°27' W 000°31'1917.5
2015-Mar-27 00:29N 50°30' W 000°02'1718.0
2015-Mar-26 23:33N 50°34' E 000°24'1919.2
2015-Mar-26 22:33N 50°43' E 000°51'2220.3
2015-Mar-26 21:29N 50°55' E 001°19'1819.7
2015-Mar-26 20:33N 51°09' E 001°39'1818.5
2015-Mar-26 19:33N 51°24' E 001°56'1817.9
2015-Mar-26 18:33N 51°38' E 002°14'9418.8
2015-Mar-26 13:33N 52°51' E 003°50'2019.0
2015-Mar-26 12:30N 53°06' E 004°13'1718.2
2015-Mar-26 11:33N 53°19' E 004°30'1716.8
2015-Mar-26 10:33N 53°32' E 004°50'1818.0
2015-Mar-26 09:33N 53°38' E 005°18'1818.5
2015-Mar-26 08:33N 53°45' E 005°47'2019.7
2015-Mar-26 07:32N 53°49' E 006°20'3020.4
2015-Mar-26 06:05N 53°56' E 007°09'1120.2
2015-Mar-26 05:32N 53°59' E 007°27'1616.0
2015-Mar-26 04:33N 53°52' E 007°52'1414.3
2015-Mar-26 03:33N 53°45' E 008°13'1414.0
2015-Mar-26 02:33N 53°36' E 008°31'1 1.3
2015-Mar-26 01:31N 53°35' E 008°32'0 0.0
2015-Mar-26 00:31N 53°35' E 008°32'0 0.0
2015-Mar-25 23:31N 53°35' E 008°32'0 0.0
2015-Mar-25 22:28N 53°35' E 008°32'0 0.0
2015-Mar-25 21:28N 53°35' E 008°32'0 0.0
2015-Mar-25 20:31N 53°35' E 008°32'0 0.0
2015-Mar-25 19:28N 53°35' E 008°32'0 0.0
2015-Mar-25 18:32N 53°35' E 008°32'0 0.0
2015-Mar-25 17:29N 53°35' E 008°32'0 0.0
2015-Mar-25 16:26N 53°35' E 008°32'0 0.0
2015-Mar-25 15:26N 53°35' E 008°32'0 0.0
2015-Mar-25 14:29N 53°35' E 008°32'0 0.0
2015-Mar-25 13:20N 53°35' E 008°32'0 0.0
2015-Mar-25 12:29N 53°35' E 008°32'0 0.0
2015-Mar-25 11:32N 53°35' E 008°32'0 0.0
2015-Mar-25 10:32N 53°35' E 008°32'0 0.0
2015-Mar-25 09:26N 53°35' E 008°32'0 0.0
2015-Mar-25 08:29N 53°35' E 008°32'0 0.0
2015-Mar-25 07:23N 53°35' E 008°32'0 0.0
2015-Mar-25 06:32N 53°35' E 008°32'0 0.0
2015-Mar-25 05:29N 53°35' E 008°32'0 0.0
2015-Mar-25 04:17N 53°35' E 008°32'0 0.0
2015-Mar-25 03:32N 53°35' E 008°32'0 0.0
2015-Mar-25 02:32N 53°35' E 008°32'0 0.0
2015-Mar-25 01:32N 53°35' E 008°32'0 0.0
2015-Mar-25 00:32N 53°35' E 008°32'0 0.0
2015-Mar-24 23:32N 53°35' E 008°32'0 0.0
2015-Mar-24 22:32N 53°35' E 008°32'0 0.0
2015-Mar-24 21:32N 53°35' E 008°32'0 0.0
2015-Mar-24 20:23N 53°35' E 008°32'3 3.3
2015-Mar-24 19:34N 53°37' E 008°29'1414.2
2015-Mar-24 18:33N 53°46' E 008°11'1413.8
2015-Mar-24 17:33N 53°52' E 007°50'4 3.9
2015-Mar-24 16:33N 53°53' E 007°43'6 6.3
2015-Mar-24 15:33N 53°54' E 007°33'9 8.9
2015-Mar-24 14:33N 53°53' E 007°18'10 9.5
2015-Mar-24 13:32N 53°51' E 007°02'1310.8
2015-Mar-24 12:19N 53°48' E 006°40'911.2
2015-Mar-24 11:33N 53°46' E 006°26'1111.4
2015-Mar-24 10:33N 53°43' E 006°08'1111.4
2015-Mar-24 09:33N 53°40' E 005°50'1111.4
2015-Mar-24 08:33N 53°36' E 005°31'1211.6
2015-Mar-24 07:33N 53°32' E 005°13'1111.5
2015-Mar-24 06:33N 53°28' E 004°55'1111.0
2015-Mar-24 05:33N 53°21' E 004°41'1411.2
2015-Mar-24 04:16N 53°09' E 004°29'810.7
2015-Mar-24 03:31N 53°02' E 004°22'1010.3
2015-Mar-24 02:33N 52°53' E 004°15'10 9.8
2015-Mar-24 01:33N 52°44' E 004°07'10 9.7
2015-Mar-24 00:33N 52°36' E 003°59'9 9.3
2015-Mar-23 23:33N 52°27' E 003°53'9 8.9
2015-Mar-23 22:33N 52°18' E 003°52'9 9.4
2015-Mar-23 21:33N 52°09' E 003°54'7 7.2
2015-Mar-23 20:33N 52°02' E 003°55'7 6.4
2015-Mar-23 19:32N 51°58' E 004°03'0 0.0
2015-Mar-23 18:32N 51°58' E 004°03'0 0.0
2015-Mar-23 17:32N 51°58' E 004°03'0 0.0
2015-Mar-23 16:32N 51°58' E 004°03'0 0.0
2015-Mar-23 15:32N 51°58' E 004°03'0 0.0
2015-Mar-23 14:32N 51°58' E 004°03'0 0.0
2015-Mar-23 13:32N 51°58' E 004°03'0 0.0
2015-Mar-23 12:32N 51°58' E 004°03'0 0.0
2015-Mar-23 11:32N 51°58' E 004°03'0 0.0
2015-Mar-23 10:32N 51°58' E 004°03'0 0.0
2015-Mar-23 09:32N 51°58' E 004°03'0 0.0
2015-Mar-23 08:32N 51°58' E 004°03'0 0.0
2015-Mar-23 07:32N 51°58' E 004°03'0 0.0
2015-Mar-23 06:29N 51°58' E 004°03'0 0.0
2015-Mar-23 05:32N 51°58' E 004°03'0 0.0
2015-Mar-23 04:29N 51°58' E 004°03'0 0.0
2015-Mar-23 03:32N 51°58' E 004°03'0 0.0
2015-Mar-23 02:32N 51°58' E 004°03'0 0.0
2015-Mar-23 01:32N 51°58' E 004°03'0 0.0
2015-Mar-23 00:32N 51°58' E 004°03'1 0.6
2015-Mar-22 23:33N 51°58' E 004°04'5 4.8
2015-Mar-22 22:33N 52°00' E 003°57'8 8.3
2015-Mar-22 21:33N 51°59' E 003°44'6 2.3
2015-Mar-22 19:06N 51°56' E 003°36'0 0.2
2015-Mar-22 18:17N 51°56' E 003°36'0 0.1
2015-Mar-22 17:32N 51°56' E 003°37'0 0.0
2015-Mar-22 16:33N 51°56' E 003°37'0 0.0
2015-Mar-22 15:33N 51°56' E 003°37'0 0.1
2015-Mar-22 14:05N 51°56' E 003°37'0 0.4
2015-Mar-22 13:32N 51°56' E 003°37'0 0.1
2015-Mar-22 12:05N 51°56' E 003°36'0 0.0
2015-Mar-22 10:29N 51°56' E 003°36'0 0.0
2015-Mar-22 09:30N 51°56' E 003°36'0 0.0
2015-Mar-22 08:18N 51°56' E 003°36'0 0.0
2015-Mar-22 06:29N 51°56' E 003°36'0 0.1
2015-Mar-22 04:30N 51°56' E 003°37'2 2.0
2015-Mar-22 03:30N 51°56' E 003°33'7 7.8
2015-Mar-22 02:33N 51°52' E 003°23'8 7.9
2015-Mar-22 01:32N 51°46' E 003°14'12 9.7
2015-Mar-22 00:16N 51°34' E 003°09'1115.3
2015-Mar-21 23:33N 51°25' E 003°01'1817.6
2015-Mar-21 22:34N 51°25' E 003°29'1010.2
2015-Mar-21 21:33N 51°22' E 003°45'1110.8
2015-Mar-21 20:34N 51°24' E 004°02'10 9.8
2015-Mar-21 19:34N 51°21' E 004°17'0 0.0
2015-Mar-21 18:34N 51°21' E 004°17'2 1.8
2015-Mar-21 17:34N 51°20' E 004°19'1 0.6
2015-Mar-21 16:30N 51°20' E 004°20'0 0.0
2015-Mar-21 15:34N 51°20' E 004°20'0 0.0
2015-Mar-21 14:34N 51°20' E 004°20'0 0.0
2015-Mar-21 13:31N 51°20' E 004°20'0 0.0
2015-Mar-21 12:33N 51°20' E 004°20'0 0.0
2015-Mar-21 11:33N 51°20' E 004°20'0 0.0
2015-Mar-21 10:33N 51°20' E 004°20'0 0.0
2015-Mar-21 09:33N 51°20' E 004°20'0 0.0
2015-Mar-21 08:34N 51°20' E 004°20'0 0.0
2015-Mar-21 07:33N 51°20' E 004°20'0 0.0
2015-Mar-21 06:34N 51°20' E 004°20'0 0.0
2015-Mar-21 05:33N 51°20' E 004°20'0 0.0
2015-Mar-21 04:33N 51°20' E 004°20'0 0.0
2015-Mar-21 03:33N 51°20' E 004°20'0 0.0
2015-Mar-21 02:33N 51°20' E 004°20'0 0.0
2015-Mar-21 01:33N 51°20' E 004°20'0 0.0
2015-Mar-21 00:31N 51°20' E 004°20'0 0.0
2015-Mar-20 23:33N 51°20' E 004°20'0 0.0
2015-Mar-20 22:33N 51°20' E 004°20'0 0.0
2015-Mar-20 21:33N 51°20' E 004°20'0 0.0
2015-Mar-20 20:30N 51°20' E 004°20'0 0.0
2015-Mar-20 19:33N 51°20' E 004°20'0 0.0
2015-Mar-20 18:33N 51°20' E 004°20'0 0.0
2015-Mar-20 17:30N 51°20' E 004°20'0 0.0
2015-Mar-20 16:33N 51°20' E 004°20'0 0.0
2015-Mar-20 15:33N 51°20' E 004°20'0 0.0
2015-Mar-20 14:33N 51°20' E 004°20'0 0.0
2015-Mar-20 13:33N 51°20' E 004°20'2 2.1
2015-Mar-20 12:34N 51°21' E 004°17'0 0.2
2015-Mar-20 11:34N 51°21' E 004°17'4 4.2
2015-Mar-20 10:33N 51°24' E 004°12'9 9.1
2015-Mar-20 09:34N 51°25' E 003°58'10 9.8
2015-Mar-20 08:33N 51°25' E 003°42'8 8.4
2015-Mar-20 07:33N 51°25' E 003°29'12 9.9
2015-Mar-20 06:17N 51°24' E 003°09'7 9.7
2015-Mar-20 05:33N 51°23' E 002°58'1010.1
2015-Mar-20 04:33N 51°22' E 002°42'10 9.5
2015-Mar-20 03:33N 51°21' E 002°26'1313.6
2015-Mar-20 02:34N 51°15' E 002°07'1717.3
2015-Mar-20 01:34N 51°07' E 001°43'2618.1
2015-Mar-20 00:08N 50°45' E 001°22'1518.4
2015-Mar-19 23:20N 50°34' E 001°06'1418.0
2015-Mar-19 22:33N 50°29' E 000°45'56820.6
2015-Mar-18 19:00N 49°30' W 013°54'25919.9 120 / 131033.0 5.4 1.011.0 7.211.7
2015-Mar-18 06:00N 49°06' W 020°30'26424.0 320 / 91031.010.8 1.010.0 5.011.4
2015-Mar-17 19:00N 48°24' W 027°06'   180 / 321025.010.8 3.011.0 7.211.7

Dump ship's entire track history